Time;durP1;ratioP1;P1;durP2;ratioP2;P2;SDS_P1;SDS_P2;PMS_P1;PMS_P2;Temp;Humidity;BMP_temperature;BMP_pressure;BME280_temperature;BME280_humidity;BME280_pressure;Samples;Min_cycle;Max_cycle;Signal;HPM_P1;HPM_P2
2023/09/07 00:00:14;;;;;;;0.98;0.98;;;;;;;21.83;62.14;102021.63;5063690;28;20037;-83
2023/09/07 00:02:40;;;;;;;0.20;0.20;;;;;;;21.80;61.48;102017.28;5080735;28;20051;-84
2023/09/07 00:05:07;;;;;;;0.30;0.30;;;;;;;21.77;61.78;102017.41;5074950;28;20116;-84
2023/09/07 00:07:34;;;;;;;0.20;0.20;;;;;;;21.74;61.49;102012.16;5067395;28;20123;-83
2023/09/07 00:10:00;;;;;;;0.10;0.10;;;;;;;21.70;61.55;102010.56;5070998;28;20057;-83
2023/09/07 00:12:27;;;;;;;0.10;0.10;;;;;;;21.68;61.37;102009.78;5079248;28;20031;-83
2023/09/07 00:14:54;;;;;;;0.10;0.10;;;;;;;21.64;61.61;102007.19;5070038;28;20036;-83
2023/09/07 00:17:21;;;;;;;0.10;0.10;;;;;;;21.60;61.49;102005.63;5070743;28;20029;-83
2023/09/07 00:19:49;;;;;;;0.10;0.10;;;;;;;21.59;61.94;102003.84;5073453;28;20119;-83
2023/09/07 00:22:16;;;;;;;0.00;0.00;;;;;;;21.57;62.42;102010.28;5067138;28;20028;-83
2023/09/07 00:24:42;;;;;;;0.10;0.10;;;;;;;21.53;62.16;102001.41;5071534;28;20021;-82
2023/09/07 00:27:11;;;;;;;0.10;0.10;;;;;;;21.51;62.13;102000.63;5064650;28;20029;-83
2023/09/07 00:29:38;;;;;;;1.55;0.50;;;;;;;21.50;62.40;102006.97;5065730;28;20067;-83
2023/09/07 00:32:04;;;;;;;0.00;0.00;;;;;;;21.47;62.73;102004.41;5063124;28;20040;-84
2023/09/07 00:34:30;;;;;;;0.10;0.10;;;;;;;21.46;62.16;102008.06;5071428;28;20097;-83
2023/09/07 00:36:57;;;;;;;0.10;0.10;;;;;;;21.44;63.01;102008.13;5067135;28;20032;-83
2023/09/07 00:39:23;;;;;;;0.10;0.10;;;;;;;21.42;62.86;102009.16;5066272;28;20028;-83
2023/09/07 00:41:49;;;;;;;0.20;0.20;;;;;;;21.38;62.29;102004.88;5069752;28;20037;-83
2023/09/07 00:44:15;;;;;;;0.10;0.10;;;;;;;21.36;63.36;102012.13;5072308;28;20036;-83
2023/09/07 00:46:44;;;;;;;0.10;0.10;;;;;;;21.31;62.93;102005.16;5070346;28;20028;-84
2023/09/07 00:49:12;;;;;;;0.10;0.10;;;;;;;21.27;62.56;102000.84;5068246;28;20104;-82
2023/09/07 00:51:38;;;;;;;0.13;0.13;;;;;;;21.24;62.96;101998.28;5067205;28;20033;-84
2023/09/07 00:54:04;;;;;;;0.20;0.20;;;;;;;21.22;62.42;101997.50;5073000;28;20103;-83
2023/09/07 00:56:31;;;;;;;0.03;0.03;;;;;;;21.20;62.33;101995.81;5063744;28;20035;-83
2023/09/07 00:58:59;;;;;;;0.40;0.40;;;;;;;21.17;62.39;102003.09;5066249;28;20401;-83
2023/09/07 01:01:26;;;;;;;0.10;0.10;;;;;;;21.14;62.80;102002.38;5072605;28;20059;-84
2023/09/07 01:03:52;;;;;;;0.03;0.03;;;;;;;21.12;62.82;101998.84;5072674;28;20079;-83
2023/09/07 01:06:27;;;;;;;0.10;0.10;;;;;;;21.11;62.56;101994.41;5073817;28;20028;-83
2023/09/07 01:08:57;;;;;;;0.00;0.00;;;;;;;21.06;63.06;101993.75;5067410;28;20035;-83
2023/09/07 01:11:23;;;;;;;0.00;0.00;;;;;;;21.01;62.33;101989.47;5073880;28;20037;-83
2023/09/07 01:13:53;;;;;;;0.10;0.10;;;;;;;20.99;62.45;101985.09;5067258;28;20154;-83
2023/09/07 01:16:20;;;;;;;0.10;0.10;;;;;;;20.95;63.13;101986.19;5065247;28;20221;-83
2023/09/07 01:18:47;;;;;;;0.05;0.05;;;;;;;20.94;63.23;101987.13;5073470;28;20036;-83
2023/09/07 01:21:14;;;;;;;0.00;0.00;;;;;;;20.92;63.18;101986.31;5069077;28;20113;-82
2023/09/07 01:23:42;;;;;;;0.00;0.00;;;;;;;20.91;63.20;101995.31;5077631;28;20104;-82
2023/09/07 01:26:09;;;;;;;0.05;0.05;;;;;;;20.90;62.78;101991.78;5093620;28;20072;-81
2023/09/07 01:28:36;;;;;;;0.30;0.30;;;;;;;20.88;63.60;101985.56;5085180;28;20085;-84
2023/09/07 01:31:03;;;;;;;0.10;0.10;;;;;;;20.88;63.51;101984.72;5077755;28;20040;-83
2023/09/07 01:33:29;;;;;;;0.10;0.10;;;;;;;20.88;63.15;101985.56;5079363;28;20025;-83
2023/09/07 01:35:55;;;;;;;1.80;0.50;;;;;;;20.87;63.12;101983.81;5073109;28;20427;-84
2023/09/07 01:38:22;;;;;;;0.40;0.40;;;;;;;20.84;63.79;101982.13;5073777;28;20033;-83
2023/09/07 01:40:48;;;;;;;0.10;0.10;;;;;;;20.83;62.99;101977.69;5080573;28;20114;-84
2023/09/07 01:43:14;;;;;;;0.08;0.08;;;;;;;20.82;63.12;101980.47;5072042;28;20024;-84
2023/09/07 01:45:40;;;;;;;0.10;0.10;;;;;;;20.81;63.33;101984.09;5081001;28;20099;-84
2023/09/07 01:48:10;;;;;;;0.10;0.10;;;;;;;20.80;63.54;101977.84;5073820;28;20040;-84
2023/09/07 01:50:37;;;;;;;0.00;0.00;;;;;;;20.80;63.28;101974.28;5078190;28;20129;-84
2023/09/07 01:53:04;;;;;;;0.10;0.10;;;;;;;20.78;63.40;101985.09;5079702;28;20173;-84
2023/09/07 01:55:31;;;;;;;0.10;0.10;;;;;;;20.78;63.60;101978.84;5078044;28;20032;-83
2023/09/07 01:57:57;;;;;;;0.10;0.10;;;;;;;20.77;63.58;101985.19;5069232;28;20119;-83
2023/09/07 02:00:23;;;;;;;0.38;0.38;;;;;;;20.75;63.42;101989.75;5070646;28;20039;-83
2023/09/07 02:02:50;;;;;;;0.10;0.10;;;;;;;20.73;63.71;101997.03;5082735;28;20044;-83
2023/09/07 02:05:16;;;;;;;0.10;0.10;;;;;;;20.72;63.71;101997.97;5068655;28;20200;-83
2023/09/07 02:07:43;;;;;;;0.40;0.40;;;;;;;20.68;63.37;101992.69;5080345;28;20048;-83
2023/09/07 02:10:10;;;;;;;0.00;0.00;;;;;;;20.66;63.65;101986.50;5072711;28;20037;-83
2023/09/07 02:12:36;;;;;;;0.10;0.10;;;;;;;20.65;63.47;101987.44;5077980;28;20523;-82
2023/09/07 02:15:04;;;;;;;0.70;0.57;;;;;;;20.63;63.33;101994.72;5079429;28;20037;-82
2023/09/07 02:17:30;;;;;;;0.05;0.05;;;;;;;20.61;63.40;101999.31;5075479;28;20530;-83
2023/09/07 02:19:56;;;;;;;0.00;0.00;;;;;;;20.59;63.72;101990.41;5067739;28;20039;-82
2023/09/07 02:22:22;;;;;;;0.00;0.00;;;;;;;20.58;63.84;101987.78;5078255;28;20036;-83
2023/09/07 02:24:49;;;;;;;0.00;0.00;;;;;;;20.56;63.36;101985.19;5529497;22;20153;-82
2023/09/07 02:27:15;;;;;;;0.05;0.05;;;;;;;20.54;63.35;101987.06;5075378;28;20056;-82
2023/09/07 02:29:41;;;;;;;0.10;0.10;;;;;;;20.50;64.00;101986.31;5061834;28;20072;-82
2023/09/07 02:32:08;;;;;;;0.00;0.00;;;;;;;20.50;63.92;101985.44;5057197;28;20503;-83
2023/09/07 02:34:36;;;;;;;0.43;0.20;;;;;;;20.47;64.54;101990.94;5052664;28;20017;-83
2023/09/07 02:37:02;;;;;;;1.75;0.65;;;;;;;20.44;64.20;101988.41;5050784;28;20087;-83
2023/09/07 02:39:29;;;;;;;0.10;0.10;;;;;;;20.42;63.84;101983.06;5052368;28;20056;-83
2023/09/07 02:41:55;;;;;;;0.10;0.10;;;;;;;20.38;64.14;101986.84;5054837;28;20074;-82
2023/09/07 02:44:21;;;;;;;0.15;0.15;;;;;;;20.36;64.47;101988.72;5053029;28;20086;-82
2023/09/07 02:46:47;;;;;;;0.30;0.30;;;;;;;20.35;63.48;101993.22;5052062;28;20411;-83
2023/09/07 02:49:13;;;;;;;0.10;0.10;;;;;;;20.31;64.28;101990.72;5042887;28;20104;-82
2023/09/07 02:51:39;;;;;;;0.10;0.10;;;;;;;20.28;64.12;101983.66;5052478;28;20035;-82
2023/09/07 02:54:06;;;;;;;0.10;0.10;;;;;;;20.28;63.94;101996.25;5050067;28;20025;-83
2023/09/07 02:56:32;;;;;;;0.10;0.10;;;;;;;20.26;64.58;101993.63;5053608;28;20029;-83
2023/09/07 02:58:58;;;;;;;0.10;0.10;;;;;;;20.25;64.33;101996.38;5049364;28;20036;-83
2023/09/07 03:01:24;;;;;;;0.08;0.08;;;;;;;20.25;64.34;101991.00;5045614;28;20037;-83
2023/09/07 03:03:50;;;;;;;0.10;0.10;;;;;;;20.23;64.46;101988.38;5051943;28;20033;-83
2023/09/07 03:06:16;;;;;;;0.10;0.10;;;;;;;20.22;64.64;101986.63;5052817;28;20029;-83
2023/09/07 03:08:43;;;;;;;0.10;0.10;;;;;;;20.20;64.44;101992.06;5053121;28;20087;-83
2023/09/07 03:11:09;;;;;;;0.00;0.00;;;;;;;20.20;64.46;101993.91;5052953;28;20488;-82
2023/09/07 03:13:35;;;;;;;0.10;0.10;;;;;;;20.18;63.98;101990.38;5052234;28;20033;-82
2023/09/07 03:16:03;;;;;;;0.00;0.00;;;;;;;20.17;64.40;101999.38;5052235;28;20029;-82
2023/09/07 03:18:30;;;;;;;0.10;0.10;;;;;;;20.18;63.93;101995.78;5051807;28;20083;-83
2023/09/07 03:20:58;;;;;;;0.00;0.00;;;;;;;20.17;64.43;101999.38;5052972;28;20033;-82
2023/09/07 03:23:24;;;;;;;0.20;0.20;;;;;;;20.16;64.26;102000.31;5050338;28;20089;-83
2023/09/07 03:25:51;;;;;;;0.00;0.00;;;;;;;20.11;64.66;102000.53;5051788;28;20037;-83
2023/09/07 03:28:17;;;;;;;0.10;0.10;;;;;;;20.09;64.68;101991.66;5051738;28;20021;-83
2023/09/07 03:30:43;;;;;;;0.15;0.15;;;;;;;20.08;64.26;101986.34;5053073;28;20025;-83
2023/09/07 03:33:09;;;;;;;0.10;0.10;;;;;;;20.06;64.15;101990.91;5053388;28;20029;-83
2023/09/07 03:35:35;;;;;;;0.10;0.10;;;;;;;20.02;64.58;101988.31;5052698;28;20028;-83
2023/09/07 03:38:01;;;;;;;0.10;0.10;;;;;;;20.00;64.63;101984.84;5052272;28;20033;-83
2023/09/07 03:40:27;;;;;;;0.00;0.00;;;;;;;19.99;64.26;101991.16;5053520;28;20021;-83
2023/09/07 03:42:53;;;;;;;0.10;0.10;;;;;;;19.96;64.69;101985.91;5052867;28;20033;-83
2023/09/07 03:45:19;;;;;;;0.93;0.90;;;;;;;19.95;64.35;101994.91;5052092;28;20049;-82
2023/09/07 03:47:45;;;;;;;0.10;0.10;;;;;;;19.92;64.95;101989.66;5056180;28;20041;-82
2023/09/07 03:50:11;;;;;;;0.10;0.10;;;;;;;19.92;64.62;101989.66;5056290;28;20079;-82
2023/09/07 03:52:37;;;;;;;0.32;0.32;;;;;;;19.91;64.85;101987.88;5056904;28;20673;-83
2023/09/07 03:55:04;;;;;;;0.80;0.60;;;;;;;19.87;65.29;101987.13;5055169;28;20048;-82
2023/09/07 03:57:30;;;;;;;0.10;0.10;;;;;;;19.87;64.34;101992.53;5056074;28;20033;-83
2023/09/07 03:59:57;;;;;;;0.32;0.32;;;;;;;19.86;65.01;101984.53;5050610;28;20384;-82
2023/09/07 04:02:23;;;;;;;0.20;0.20;;;;;;;19.85;64.23;101993.53;5048794;28;20033;-83
2023/09/07 04:04:51;;;;;;;0.30;0.30;;;;;;;19.84;64.46;101986.41;5050888;28;20084;-82
2023/09/07 04:07:17;;;;;;;0.10;0.10;;;;;;;19.81;64.65;101994.56;5048876;28;20032;-82
2023/09/07 04:09:44;;;;;;;0.00;0.00;;;;;;;19.80;64.47;101990.13;5052165;28;20094;-82
2023/09/07 04:12:10;;;;;;;0.20;0.20;;;;;;;19.79;64.45;101993.72;5052832;28;20037;-83
2023/09/07 04:14:36;;;;;;;0.10;0.10;;;;;;;19.76;64.95;101988.50;5045287;28;20029;-82
2023/09/07 04:17:03;;;;;;;0.30;0.30;;;;;;;19.72;65.31;101993.97;5044400;28;20230;-82
2023/09/07 04:19:29;;;;;;;0.52;0.52;;;;;;;19.71;65.15;101997.63;5049257;28;20040;-82
2023/09/07 04:21:56;;;;;;;0.20;0.20;;;;;;;19.69;64.40;102007.56;5053887;28;20380;-82
2023/09/07 04:24:22;;;;;;;0.10;0.10;;;;;;;19.66;64.78;101991.53;5046957;28;20112;-82
2023/09/07 04:26:49;;;;;;;0.68;0.68;;;;;;;19.65;64.58;101997.88;5050408;28;20036;-82
2023/09/07 04:29:15;;;;;;;0.15;0.15;;;;;;;19.64;64.93;102001.50;5053063;28;20558;-83
2023/09/07 04:31:42;;;;;;;0.10;0.10;;;;;;;19.64;64.84;101993.44;5053943;28;20041;-82
2023/09/07 04:34:08;;;;;;;0.00;0.00;;;;;;;19.63;64.86;101994.38;5051307;28;20087;-82
2023/09/07 04:36:34;;;;;;;0.10;0.10;;;;;;;19.62;64.92;101989.06;5053311;28;20029;-82
2023/09/07 04:39:00;;;;;;;0.30;0.20;;;;;;;19.61;64.83;102001.59;5056407;28;20044;-81
2023/09/07 04:41:26;;;;;;;0.10;0.10;;;;;;;19.61;64.96;102004.28;5070785;28;20043;-82
2023/09/07 04:43:52;;;;;;;0.10;0.10;;;;;;;19.60;64.47;102005.25;5071215;28;20044;-83
2023/09/07 04:46:22;;;;;;;0.10;0.10;;;;;;;19.61;64.77;102017.72;5063099;28;20048;-84
2023/09/07 04:48:48;;;;;;;0.10;0.10;;;;;;;19.56;65.03;102008.97;5064649;28;20025;-83
2023/09/07 04:51:14;;;;;;;0.10;0.10;;;;;;;19.55;65.08;102008.13;5061449;28;20036;-84
2023/09/07 04:53:40;;;;;;;0.10;0.10;;;;;;;19.55;65.15;102004.53;5062943;28;20025;-84
2023/09/07 04:56:08;;;;;;;0.20;0.20;;;;;;;19.54;65.37;102009.06;5058676;28;20044;-83
2023/09/07 04:58:34;;;;;;;0.22;0.22;;;;;;;19.51;65.34;102006.47;5061349;28;20075;-84
2023/09/07 05:01:03;;;;;;;0.10;0.10;;;;;;;19.52;64.82;102000.16;5063014;28;20035;-82
2023/09/07 05:03:30;;;;;;;0.20;0.20;;;;;;;19.50;65.04;102009.22;5063196;28;20029;-84
2023/09/07 05:05:56;;;;;;;0.20;0.20;;;;;;;19.49;65.26;102007.47;5061587;28;20402;-84
2023/09/07 05:08:24;;;;;;;0.28;0.28;;;;;;;19.49;65.59;102012.84;5064015;28;20021;-83
2023/09/07 05:10:57;;;;;;;0.20;0.20;;;;;;;19.50;65.37;102007.44;5062082;28;20029;-84
2023/09/07 05:13:24;;;;;;;0.32;0.32;;;;;;;19.47;65.45;102012.03;5061663;28;20025;-84
2023/09/07 05:15:51;;;;;;;0.10;0.10;;;;;;;19.47;65.67;102020.97;5060098;28;20104;-83
2023/09/07 05:18:18;;;;;;;0.10;0.10;;;;;;;19.47;65.37;102020.09;5055156;28;20060;-83
2023/09/07 05:20:45;;;;;;;0.10;0.10;;;;;;;19.47;65.29;102025.47;5059055;28;20483;-85
2023/09/07 05:23:15;;;;;;;0.30;0.30;;;;;;;19.47;65.54;102026.34;5061352;28;20039;-85
2023/09/07 05:25:52;;;;;;;0.13;0.13;;;;;;;19.51;65.92;102025.28;5059833;28;20039;-83
2023/09/07 05:28:19;;;;;;;0.65;0.65;;;;;;;19.49;65.76;102031.66;5055918;28;20104;-82
2023/09/07 05:30:45;;;;;;;0.05;0.05;;;;;;;19.50;65.89;102037.00;5061584;28;20108;-82
2023/09/07 05:33:13;;;;;;;0.10;0.10;;;;;;;19.50;65.53;102030.72;5057837;28;20033;-83
2023/09/07 05:35:41;;;;;;;0.15;0.15;;;;;;;19.52;65.58;102028.88;5057864;28;20117;-83
2023/09/07 05:38:08;;;;;;;0.10;0.10;;;;;;;19.52;65.81;102028.88;5058940;28;20423;-83
2023/09/07 05:40:36;;;;;;;0.10;0.10;;;;;;;19.53;65.29;102023.41;5059557;28;20111;-84
2023/09/07 05:43:03;;;;;;;0.10;0.10;;;;;;;19.55;65.29;102023.34;5063779;28;20562;-83
2023/09/07 05:45:31;;;;;;;0.10;0.10;;;;;;;19.60;65.00;102023.19;5052998;28;20660;-83
2023/09/07 05:47:57;;;;;;;0.55;0.55;;;;;;;19.62;65.41;102024.00;5055387;28;20048;-86
2023/09/07 05:50:23;;;;;;;0.10;0.10;;;;;;;19.64;65.34;102023.00;5059379;28;20086;-83
2023/09/07 05:52:50;;;;;;;0.05;0.05;;;;;;;19.64;65.60;102017.63;5059257;28;20657;-83
2023/09/07 05:55:16;;;;;;;0.10;0.10;;;;;;;19.66;65.59;102018.44;5060423;28;20021;-84
2023/09/07 05:57:42;;;;;;;0.10;0.10;;;;;;;19.67;65.96;102025.56;5052084;28;20031;-82
2023/09/07 06:00:08;;;;;;;0.05;0.05;;;;;;;19.70;65.37;102032.63;5053455;28;20056;-83
2023/09/07 06:02:35;;;;;;;0.10;0.10;;;;;;;19.71;65.97;102029.00;5057492;28;20033;-83
2023/09/07 06:05:01;;;;;;;0.10;0.10;;;;;;;19.72;65.75;102034.31;5052763;28;20032;-87
2023/09/07 06:07:28;;;;;;;0.57;0.57;;;;;;;19.75;66.00;102040.53;5048826;28;20033;-83
2023/09/07 06:09:54;;;;;;;0.10;0.10;;;;;;;19.78;65.64;102045.78;5046940;28;20024;-83
2023/09/07 06:12:20;;;;;;;0.10;0.10;;;;;;;19.81;65.73;102048.34;5050850;28;20029;-84
2023/09/07 06:14:46;;;;;;;0.10;0.10;;;;;;;19.84;65.96;102040.22;5048558;28;20032;-84
2023/09/07 06:17:12;;;;;;;0.00;0.00;;;;;;;19.87;65.92;102040.06;5054137;28;20028;-84
2023/09/07 06:19:39;;;;;;;0.03;0.03;;;;;;;19.91;66.02;102039.00;5053874;28;20027;-84
2023/09/07 06:22:05;;;;;;;0.10;0.10;;;;;;;19.96;65.83;102047.78;5055016;28;20025;-86
2023/09/07 06:24:31;;;;;;;0.22;0.22;;;;;;;20.01;65.99;102053.84;5062021;28;20135;-86
2023/09/07 06:26:57;;;;;;;0.00;0.00;;;;;;;20.08;65.48;102058.97;5054123;28;20032;-84
2023/09/07 06:29:23;;;;;;;0.10;0.10;;;;;;;20.12;65.62;102055.22;5054311;28;20478;-84
2023/09/07 06:31:49;;;;;;;0.45;0.45;;;;;;;20.16;66.54;102056.84;5054043;28;20115;-85
2023/09/07 06:34:16;;;;;;;0.20;0.20;;;;;;;20.22;66.17;102055.72;5053276;28;20037;-84
2023/09/07 06:36:42;;;;;;;0.20;0.20;;;;;;;20.29;65.79;102059.91;5052534;28;20095;-84
2023/09/07 06:39:09;;;;;;;0.10;0.10;;;;;;;20.33;66.33;102062.38;5054512;28;20044;-84
2023/09/07 06:41:35;;;;;;;0.20;0.20;;;;;;;20.40;66.02;102056.75;5053535;28;20434;-85
2023/09/07 06:44:01;;;;;;;0.10;0.10;;;;;;;20.46;66.08;102056.50;5052480;28;20045;-83
2023/09/07 06:46:27;;;;;;;0.10;0.10;;;;;;;20.52;66.19;102058.91;5054155;28;20078;-84
2023/09/07 06:48:53;;;;;;;0.00;0.00;;;;;;;20.59;65.99;102056.84;5058121;28;20021;-85
2023/09/07 06:51:19;;;;;;;0.32;0.28;;;;;;;20.65;66.58;102065.53;5055175;28;20036;-85
2023/09/07 06:53:45;;;;;;;0.17;0.17;;;;;;;20.72;66.21;102054.53;5055397;28;20100;-86
2023/09/07 06:56:11;;;;;;;0.10;0.10;;;;;;;20.78;66.15;102054.28;5053985;28;20414;-85
2023/09/07 06:58:37;;;;;;;0.10;0.10;;;;;;;20.81;67.44;102049.63;5055747;28;20017;-85
2023/09/07 07:01:04;;;;;;;0.10;0.10;;;;;;;20.87;67.16;102051.16;5054621;28;20092;-86
2023/09/07 07:03:31;;;;;;;0.10;0.10;;;;;;;20.96;66.13;102047.16;5053780;28;20479;-86
2023/09/07 07:05:57;;;;;;;0.10;0.10;;;;;;;21.03;66.78;102053.19;5056059;28;20021;-86
2023/09/07 07:08:23;;;;;;;0.15;0.15;;;;;;;21.06;66.97;102047.63;5057301;28;20021;-85
2023/09/07 07:10:49;;;;;;;0.10;0.10;;;;;;;21.16;65.94;102059.78;5052548;28;20033;-86
2023/09/07 07:13:15;;;;;;;0.40;0.40;;;;;;;21.23;65.89;102054.97;5048677;28;20025;-86
2023/09/07 07:15:42;;;;;;;0.77;0.30;;;;;;;21.28;67.08;102053.81;5050765;28;20099;-85
2023/09/07 07:18:09;;;;;;;0.95;0.77;;;;;;;21.38;66.16;102053.38;5051132;28;20064;-86
2023/09/07 07:20:36;;;;;;;0.00;0.00;;;;;;;21.45;66.09;102053.03;5054040;28;20025;-87
2023/09/07 07:23:02;;;;;;;0.40;0.40;;;;;;;21.52;65.45;102048.25;5055369;28;20033;-87
2023/09/07 07:25:28;;;;;;;0.17;0.17;;;;;;;21.58;65.93;102049.78;5056479;28;20029;-86
2023/09/07 07:27:54;;;;;;;0.30;0.30;;;;;;;21.66;65.17;102053.00;5057506;28;20048;-86
2023/09/07 07:30:20;;;;;;;0.17;0.17;;;;;;;21.73;65.53;102049.06;5056817;28;20059;-87
2023/09/07 07:32:46;;;;;;;0.17;0.17;;;;;;;21.81;65.69;102046.84;5051433;28;20119;-86
2023/09/07 07:35:12;;;;;;;1.08;0.68;;;;;;;21.91;65.16;102046.44;5057141;28;20459;-85
2023/09/07 07:37:38;;;;;;;4.38;0.88;;;;;;;22.01;64.96;102054.91;5061759;28;20114;-84
2023/09/07 07:40:05;;;;;;;0.22;0.22;;;;;;;22.06;64.90;102044.78;5058055;28;20029;-84
2023/09/07 07:42:32;;;;;;;0.10;0.10;;;;;;;22.18;64.58;102055.00;5057275;28;20029;-84
2023/09/07 07:44:58;;;;;;;0.20;0.20;;;;;;;22.26;64.53;102046.50;5056988;28;20021;-84
2023/09/07 07:47:26;;;;;;;0.10;0.10;;;;;;;22.37;64.33;102048.63;5057615;28;20043;-84
2023/09/07 07:49:52;;;;;;;0.05;0.05;;;;;;;22.45;64.20;102047.34;5059478;28;20410;-83
2023/09/07 07:52:18;;;;;;;0.10;0.10;;;;;;;22.55;64.08;102036.91;5064992;28;20037;-84
2023/09/07 07:54:44;;;;;;;0.70;0.70;;;;;;;22.61;63.98;102031.19;5078837;28;20041;-85
2023/09/07 07:57:10;;;;;;;0.10;0.10;;;;;;;22.71;64.08;102030.75;5068334;28;20063;-85
2023/09/07 07:59:37;;;;;;;0.10;0.10;;;;;;;22.84;63.52;102031.84;5060285;28;20090;-84
2023/09/07 08:02:03;;;;;;;0.10;0.10;;;;;;;22.92;63.06;102020.63;5062377;28;20100;-84
2023/09/07 08:04:32;;;;;;;1.42;1.33;;;;;;;23.05;63.15;102035.22;5059455;28;20516;-85
2023/09/07 08:07:03;;;;;;;0.00;0.00;;;;;;;23.13;63.22;102029.41;5059601;28;20499;-85
2023/09/07 08:09:30;;;;;;;0.70;0.70;;;;;;;23.17;62.83;102024.72;5061020;28;20085;-84
2023/09/07 08:11:57;;;;;;;0.35;0.35;;;;;;;23.27;62.03;102018.72;5060553;28;20055;-84
2023/09/07 08:14:25;;;;;;;0.08;0.08;;;;;;;23.37;61.68;102018.22;5060679;28;20045;-85
2023/09/07 08:16:53;;;;;;;3.92;0.40;;;;;;;23.44;61.51;102019.63;5055584;28;20040;-87
2023/09/07 08:19:19;;;;;;;0.40;0.40;;;;;;;23.45;60.29;102015.94;5058024;28;20527;-86
2023/09/07 08:21:46;;;;;;;0.57;0.57;;;;;;;23.59;60.89;102013.34;5057153;28;20074;-86
2023/09/07 08:24:12;;;;;;;0.30;0.30;;;;;;;23.62;60.79;102014.16;5051373;28;20098;-86
2023/09/07 08:26:38;;;;;;;0.88;0.75;;;;;;;23.81;60.62;102011.25;5057440;28;20033;-86
2023/09/07 08:29:05;;;;;;;1.33;1.23;;;;;;;23.82;60.07;102005.75;5055703;28;20032;-86
2023/09/07 08:31:34;;;;;;;0.45;0.45;;;;;;;24.03;60.15;102019.03;5053716;28;20119;-85
2023/09/07 08:34:03;;;;;;;0.10;0.10;;;;;;;24.07;58.74;102007.06;5060370;28;20025;-85
2023/09/07 08:36:32;;;;;;;0.52;0.47;;;;;;;24.16;58.37;102009.22;5057347;28;20072;-85
2023/09/07 08:39:05;;;;;;;0.70;0.40;;;;;;;24.32;58.55;102005.59;5058070;28;20605;-85
2023/09/07 08:41:37;;;;;;;0.20;0.20;;;;;;;24.50;58.97;102004.50;5056898;28;20039;-85
2023/09/07 08:44:06;;;;;;;0.80;0.68;;;;;;;24.66;58.95;102000.88;5054545;28;20068;-85
2023/09/07 08:46:33;;;;;;;0.30;0.30;;;;;;;24.74;58.27;101998.56;5052811;28;20032;-86
2023/09/07 08:49:01;;;;;;;1.17;0.50;;;;;;;24.92;58.66;101998.38;5052741;28;20103;-85
2023/09/07 08:51:28;;;;;;;0.43;0.43;;;;;;;25.00;57.93;101996.94;5052731;28;20031;-85
2023/09/07 08:53:56;;;;;;;0.10;0.10;;;;;;;25.11;57.55;101993.56;5051613;28;20141;-85
2023/09/07 08:56:23;;;;;;;0.75;0.75;;;;;;;25.23;57.20;101993.72;5054461;28;20021;-84
2023/09/07 08:58:49;;;;;;;0.35;0.30;;;;;;;25.35;56.61;101993.81;5054088;28;20037;-85
2023/09/07 09:01:17;;;;;;;1.95;1.48;;;;;;;25.44;55.78;101995.06;5051664;28;20036;-85
2023/09/07 09:03:43;;;;;;;0.30;0.30;;;;;;;25.57;56.50;101989.75;5052896;28;20040;-85
2023/09/07 09:06:10;;;;;;;0.35;0.22;;;;;;;25.64;55.50;101990.19;5052855;28;20036;-86
2023/09/07 09:08:45;;;;;;;0.10;0.10;;;;;;;25.84;55.84;101995.19;5049317;28;20025;-86
2023/09/07 09:11:12;;;;;;;0.10;0.10;;;;;;;25.96;55.83;101987.19;5053112;28;20491;-85
2023/09/07 09:13:41;;;;;;;0.10;0.10;;;;;;;26.07;55.26;101991.91;5053302;28;20070;-85
2023/09/07 09:16:07;;;;;;;0.10;0.10;;;;;;;26.20;55.84;101991.97;5052713;28;20025;-85
2023/09/07 09:18:33;;;;;;;0.15;0.15;;;;;;;26.27;55.59;101991.44;5053519;28;20120;-86
2023/09/07 09:20:59;;;;;;;0.17;0.17;;;;;;;26.36;55.30;101987.19;5053233;28;20120;-85
2023/09/07 09:23:35;;;;;;;0.32;0.32;;;;;;;26.42;52.92;101989.50;5043574;28;20044;-86
2023/09/07 09:26:03;;;;;;;0.20;0.20;;;;;;;26.43;52.25;101996.69;5053380;28;20116;-85
2023/09/07 09:28:33;;;;;;;0.10;0.10;;;;;;;26.58;53.02;101988.41;5054801;28;20025;-86
2023/09/07 09:31:00;;;;;;;0.28;0.28;;;;;;;26.69;52.71;101991.25;5054194;28;20036;-84
2023/09/07 09:33:28;;;;;;;0.52;0.52;;;;;;;26.75;52.57;101993.56;5053757;28;20033;-86
2023/09/07 09:35:55;;;;;;;0.43;0.43;;;;;;;26.85;52.08;101992.94;5054787;28;20028;-86
2023/09/07 09:38:22;;;;;;;0.05;0.05;;;;;;;26.97;51.91;101981.16;5053998;28;20039;-86
2023/09/07 09:40:48;;;;;;;0.50;0.50;;;;;;;27.10;51.77;101987.47;5055897;28;20039;-86
2023/09/07 09:43:15;;;;;;;0.30;0.30;;;;;;;27.16;50.48;101985.28;5054557;28;20029;-85
2023/09/07 09:45:41;;;;;;;0.20;0.20;;;;;;;27.35;51.33;101980.22;5054293;28;20021;-86
2023/09/07 09:48:08;;;;;;;0.57;0.57;;;;;;;27.46;51.12;101984.06;5053169;28;20053;-86
2023/09/07 09:50:37;;;;;;;0.10;0.10;;;;;;;27.57;50.97;101979.53;5055554;28;20045;-86
2023/09/07 09:53:07;;;;;;;0.10;0.10;;;;;;;27.68;48.07;101980.59;5054110;28;20035;-86
2023/09/07 09:55:34;;;;;;;0.00;0.00;;;;;;;27.74;50.12;101985.59;5060019;28;20032;-84
2023/09/07 09:58:00;;;;;;;0.10;0.10;;;;;;;27.70;47.47;101984.94;5054197;28;20043;-85
2023/09/07 10:00:28;;;;;;;0.17;0.17;;;;;;;27.76;47.25;101989.03;5055052;28;20082;-85
2023/09/07 10:03:11;;;;;;;0.45;0.45;;;;;;;28.01;48.55;101987.19;5054368;28;20021;-85
2023/09/07 10:05:37;;;;;;;0.10;0.10;;;;;;;28.05;48.36;101989.59;5054222;28;20025;-86
2023/09/07 10:08:11;;;;;;;0.00;0.00;;;;;;;28.16;46.35;101979.72;5052269;28;20430;-85
2023/09/07 10:10:38;;;;;;;5.82;1.08;;;;;;;28.28;48.44;101978.78;5052879;28;20025;-86
2023/09/07 10:13:05;;;;;;;1.95;0.50;;;;;;;28.38;46.90;101974.34;5051807;28;20108;-86
2023/09/07 10:15:33;;;;;;;0.95;0.95;;;;;;;28.49;45.63;101969.91;5051254;28;20022;-86
2023/09/07 10:18:16;;;;;;;0.08;0.08;;;;;;;28.70;46.89;101972.84;5052432;28;20025;-87
2023/09/07 10:20:52;;;;;;;0.10;0.10;;;;;;;28.68;46.52;101975.66;5057376;28;20498;-86
2023/09/07 10:23:19;;;;;;;0.22;0.22;;;;;;;28.79;46.85;101966.63;5058397;28;20056;-86
2023/09/07 10:25:51;;;;;;;0.20;0.20;;;;;;;28.91;46.44;101969.38;5057690;28;20041;-86
2023/09/07 10:28:18;;;;;;;;;;;;;;;29.15;46.65;101955.59;5058393;28;20032;-84
2023/09/07 10:30:45;;;;;;;1.45;1.35;;;;;;;29.06;46.10;101957.22;5066715;28;19995;-84
2023/09/07 10:33:26;;;;;;;0.10;0.10;;;;;;;29.21;45.89;101955.09;5063494;28;20036;-84
2023/09/07 10:35:52;;;;;;;0.10;0.10;;;;;;;29.18;44.33;101958.91;5058886;28;20033;-84
2023/09/07 10:38:18;;;;;;;0.10;0.10;;;;;;;29.16;44.32;101957.31;5054447;28;20118;-83
2023/09/07 10:40:45;;;;;;;2.60;1.70;;;;;;;29.29;43.83;101962.69;5058799;28;20091;-83
2023/09/07 10:43:11;;;;;;;0.10;0.10;;;;;;;29.37;43.93;101963.78;5058979;28;20024;-85
2023/09/07 10:45:37;;;;;;;0.08;0.08;;;;;;;29.46;43.58;101956.69;5054895;28;20029;-84
2023/09/07 10:48:04;;;;;;;0.55;0.55;;;;;;;29.50;42.95;101951.84;5058584;28;20067;-83
2023/09/07 10:50:30;;;;;;;0.10;0.10;;;;;;;29.57;42.71;101949.47;5058564;28;20036;-84
2023/09/07 10:52:56;;;;;;;0.00;0.00;;;;;;;29.66;42.47;101948.69;5057960;28;20040;-83
2023/09/07 10:55:22;;;;;;;0.10;0.10;;;;;;;29.77;42.81;101951.38;5057320;28;20032;-84
2023/09/07 10:57:48;;;;;;;0.20;0.20;;;;;;;29.84;43.31;101947.13;5059187;28;20098;-84
2023/09/07 11:00:16;;;;;;;0.13;0.13;;;;;;;29.96;43.03;101942.50;5062924;28;20028;-82
2023/09/07 11:02:43;;;;;;;0.10;0.10;;;;;;;30.05;42.37;101949.06;5062373;28;20570;-84
2023/09/07 11:05:10;;;;;;;0.22;0.22;;;;;;;30.15;43.56;101943.66;5061498;28;20048;-83
2023/09/07 11:07:37;;;;;;;0.30;0.30;;;;;;;30.09;40.79;101941.47;5066530;28;20060;-83
2023/09/07 11:10:06;;;;;;;0.55;0.47;;;;;;;30.23;42.67;101934.78;5070573;28;20097;-83
2023/09/07 11:12:40;;;;;;;0.20;0.20;;;;;;;30.44;42.82;101934.78;5061019;28;20104;-83
2023/09/07 11:15:10;;;;;;;0.17;0.17;;;;;;;30.47;42.14;101935.38;5055364;28;20029;-83
2023/09/07 11:17:39;;;;;;;0.20;0.20;;;;;;;30.56;41.96;101936.47;5052015;28;20029;-83
2023/09/07 11:20:07;;;;;;;0.00;0.00;;;;;;;30.69;42.30;101936.22;5058832;28;20100;-82
2023/09/07 11:22:33;;;;;;;0.15;0.15;;;;;;;30.77;41.29;101932.84;5060073;28;20017;-83